sensor_id;sensor_type;location;lat;lon;timestamp;temperature;humidity
56761;DHT22;42633;44.494;11.356;2022-09-17T00:02:40;22.40;96.10
56761;DHT22;42633;44.494;11.356;2022-09-17T00:06:01;22.50;96.10
56761;DHT22;42633;44.494;11.356;2022-09-17T00:09:06;22.70;95.90
56761;DHT22;42633;44.494;11.356;2022-09-17T00:12:10;22.80;95.90
56761;DHT22;42633;44.494;11.356;2022-09-17T00:15:14;22.80;96.20
56761;DHT22;42633;44.494;11.356;2022-09-17T00:18:19;22.80;96.10
56761;DHT22;42633;44.494;11.356;2022-09-17T00:21:23;22.90;96.10
56761;DHT22;42633;44.494;11.356;2022-09-17T00:24:27;22.80;96.20
56761;DHT22;42633;44.494;11.356;2022-09-17T00:27:31;22.80;96.30
56761;DHT22;42633;44.494;11.356;2022-09-17T00:30:37;22.80;96.50
56761;DHT22;42633;44.494;11.356;2022-09-17T00:33:42;22.80;96.60
56761;DHT22;42633;44.494;11.356;2022-09-17T00:36:46;22.80;96.70
56761;DHT22;42633;44.494;11.356;2022-09-17T00:39:50;22.80;96.60
56761;DHT22;42633;44.494;11.356;2022-09-17T00:42:54;22.70;96.90
56761;DHT22;42633;44.494;11.356;2022-09-17T00:45:58;22.60;96.90
56761;DHT22;42633;44.494;11.356;2022-09-17T00:49:03;22.60;97.00
56761;DHT22;42633;44.494;11.356;2022-09-17T00:52:16;22.60;97.10
56761;DHT22;42633;44.494;11.356;2022-09-17T00:58:25;22.50;97.40
56761;DHT22;42633;44.494;11.356;2022-09-17T01:01:30;22.50;97.50
56761;DHT22;42633;44.494;11.356;2022-09-17T01:04:34;22.50;97.60
56761;DHT22;42633;44.494;11.356;2022-09-17T01:14:35;22.30;98.10
56761;DHT22;42633;44.494;11.356;2022-09-17T01:21:13;22.50;97.80
56761;DHT22;42633;44.494;11.356;2022-09-17T01:24:38;22.60;97.60
56761;DHT22;42633;44.494;11.356;2022-09-17T01:27:52;22.50;97.70
56761;DHT22;42633;44.494;11.356;2022-09-17T01:31:00;22.60;97.60
56761;DHT22;42633;44.494;11.356;2022-09-17T01:34:15;22.50;97.60
56761;DHT22;42633;44.494;11.356;2022-09-17T01:37:29;22.50;97.50
56761;DHT22;42633;44.494;11.356;2022-09-17T01:40:40;22.50;97.60
56761;DHT22;42633;44.494;11.356;2022-09-17T01:43:55;22.40;97.70
56761;DHT22;42633;44.494;11.356;2022-09-17T01:47:05;22.30;97.80
56761;DHT22;42633;44.494;11.356;2022-09-17T01:50:15;22.30;97.70
56761;DHT22;42633;44.494;11.356;2022-09-17T01:53:23;22.30;97.80
56761;DHT22;42633;44.494;11.356;2022-09-17T01:56:32;22.30;97.80
56761;DHT22;42633;44.494;11.356;2022-09-17T02:05:49;22.30;97.80
56761;DHT22;42633;44.494;11.356;2022-09-17T02:08:59;22.30;97.70
56761;DHT22;42633;44.494;11.356;2022-09-17T02:12:06;22.30;97.80
56761;DHT22;42633;44.494;11.356;2022-09-17T02:15:15;22.20;97.80
56761;DHT22;42633;44.494;11.356;2022-09-17T02:18:44;22.30;97.80
56761;DHT22;42633;44.494;11.356;2022-09-17T02:25:03;22.40;97.70
56761;DHT22;42633;44.494;11.356;2022-09-17T02:31:26;22.30;97.50
56761;DHT22;42633;44.494;11.356;2022-09-17T02:34:32;22.30;97.10
56761;DHT22;42633;44.494;11.356;2022-09-17T02:37:36;22.20;97.50
56761;DHT22;42633;44.494;11.356;2022-09-17T02:40:45;22.20;97.30
56761;DHT22;42633;44.494;11.356;2022-09-17T02:46:58;21.90;96.70
56761;DHT22;42633;44.494;11.356;2022-09-17T02:53:19;21.60;97.20
56761;DHT22;42633;44.494;11.356;2022-09-17T03:05:42;21.10;97.70
56761;DHT22;42633;44.494;11.356;2022-09-17T03:08:48;21.00;98.00
56761;DHT22;42633;44.494;11.356;2022-09-17T03:11:52;21.00;97.80
56761;DHT22;42633;44.494;11.356;2022-09-17T03:14:56;21.00;97.50
56761;DHT22;42633;44.494;11.356;2022-09-17T03:18:00;21.10;97.40
56761;DHT22;42633;44.494;11.356;2022-09-17T03:21:04;21.10;97.30
56761;DHT22;42633;44.494;11.356;2022-09-17T03:24:08;21.00;97.20
56761;DHT22;42633;44.494;11.356;2022-09-17T03:27:14;20.80;97.10
56761;DHT22;42633;44.494;11.356;2022-09-17T03:30:19;20.60;97.50
56761;DHT22;42633;44.494;11.356;2022-09-17T03:33:23;20.60;97.30
56761;DHT22;42633;44.494;11.356;2022-09-17T03:36:27;20.70;97.10
56761;DHT22;42633;44.494;11.356;2022-09-17T03:39:32;20.90;96.90
56761;DHT22;42633;44.494;11.356;2022-09-17T03:42:36;20.90;96.70
56761;DHT22;42633;44.494;11.356;2022-09-17T03:45:39;20.90;96.50
56761;DHT22;42633;44.494;11.356;2022-09-17T03:48:44;20.90;96.60
56761;DHT22;42633;44.494;11.356;2022-09-17T03:51:48;20.70;96.90
56761;DHT22;42633;44.494;11.356;2022-09-17T03:54:52;20.70;96.90
56761;DHT22;42633;44.494;11.356;2022-09-17T03:57:56;20.70;96.70
56761;DHT22;42633;44.494;11.356;2022-09-17T04:01:00;20.80;96.60
56761;DHT22;42633;44.494;11.356;2022-09-17T04:04:06;20.50;96.90
56761;DHT22;42633;44.494;11.356;2022-09-17T04:07:10;20.30;97.30
56761;DHT22;42633;44.494;11.356;2022-09-17T04:10:15;20.40;97.50
56761;DHT22;42633;44.494;11.356;2022-09-17T04:13:19;20.50;97.10
56761;DHT22;42633;44.494;11.356;2022-09-17T04:16:23;20.70;96.80
56761;DHT22;42633;44.494;11.356;2022-09-17T04:19:27;20.80;96.60
56761;DHT22;42633;44.494;11.356;2022-09-17T04:22:31;20.90;96.40
56761;DHT22;42633;44.494;11.356;2022-09-17T04:25:35;20.80;96.30
56761;DHT22;42633;44.494;11.356;2022-09-17T04:28:39;20.80;96.30
56761;DHT22;42633;44.494;11.356;2022-09-17T04:31:44;20.90;96.30
56761;DHT22;42633;44.494;11.356;2022-09-17T04:34:48;20.90;96.30
56761;DHT22;42633;44.494;11.356;2022-09-17T04:37:52;20.60;96.50
56761;DHT22;42633;44.494;11.356;2022-09-17T04:40:57;20.40;97.00
56761;DHT22;42633;44.494;11.356;2022-09-17T04:44:01;20.40;97.30
56761;DHT22;42633;44.494;11.356;2022-09-17T04:47:05;20.40;97.10
56761;DHT22;42633;44.494;11.356;2022-09-17T04:50:09;20.40;97.30
56761;DHT22;42633;44.494;11.356;2022-09-17T04:53:14;20.40;97.30
56761;DHT22;42633;44.494;11.356;2022-09-17T04:56:18;20.40;97.20
56761;DHT22;42633;44.494;11.356;2022-09-17T04:59:22;20.40;97.20
56761;DHT22;42633;44.494;11.356;2022-09-17T05:02:26;20.40;97.10
56761;DHT22;42633;44.494;11.356;2022-09-17T05:05:30;20.50;97.20
56761;DHT22;42633;44.494;11.356;2022-09-17T05:08:34;20.60;97.00
56761;DHT22;42633;44.494;11.356;2022-09-17T05:11:38;20.50;97.00
56761;DHT22;42633;44.494;11.356;2022-09-17T05:14:42;20.40;97.10
56761;DHT22;42633;44.494;11.356;2022-09-17T05:17:46;20.40;97.30
56761;DHT22;42633;44.494;11.356;2022-09-17T05:20:51;20.50;97.10
56761;DHT22;42633;44.494;11.356;2022-09-17T05:23:55;20.40;97.20
56761;DHT22;42633;44.494;11.356;2022-09-17T05:26:59;20.30;97.50
56761;DHT22;42633;44.494;11.356;2022-09-17T05:30:03;20.10;97.70
56761;DHT22;42633;44.494;11.356;2022-09-17T05:33:07;20.20;97.90
56761;DHT22;42633;44.494;11.356;2022-09-17T05:36:11;20.30;97.70
56761;DHT22;42633;44.494;11.356;2022-09-17T05:39:15;20.20;98.00
56761;DHT22;42633;44.494;11.356;2022-09-17T05:42:19;20.10;97.90
56761;DHT22;42633;44.494;11.356;2022-09-17T05:45:23;19.90;98.20
56761;DHT22;42633;44.494;11.356;2022-09-17T05:48:27;19.90;98.50
56761;DHT22;42633;44.494;11.356;2022-09-17T05:51:31;20.00;98.80
56761;DHT22;42633;44.494;11.356;2022-09-17T05:54:36;20.00;99.20
56761;DHT22;42633;44.494;11.356;2022-09-17T05:57:43;19.60;99.80
56761;DHT22;42633;44.494;11.356;2022-09-17T06:00:47;19.30;99.90
56761;DHT22;42633;44.494;11.356;2022-09-17T06:03:51;19.10;99.80
56761;DHT22;42633;44.494;11.356;2022-09-17T06:06:58;18.80;99.90
56761;DHT22;42633;44.494;11.356;2022-09-17T06:10:03;18.70;99.90
56761;DHT22;42633;44.494;11.356;2022-09-17T06:13:08;18.70;99.90
56761;DHT22;42633;44.494;11.356;2022-09-17T06:16:12;18.50;99.90
56761;DHT22;42633;44.494;11.356;2022-09-17T06:19:16;18.50;99.90
56761;DHT22;42633;44.494;11.356;2022-09-17T06:22:20;18.40;99.90
56761;DHT22;42633;44.494;11.356;2022-09-17T06:25:25;18.40;99.90
56761;DHT22;42633;44.494;11.356;2022-09-17T06:28:29;18.30;99.90
56761;DHT22;42633;44.494;11.356;2022-09-17T06:31:33;18.20;99.90
56761;DHT22;42633;44.494;11.356;2022-09-17T06:34:41;17.80;99.90
56761;DHT22;42633;44.494;11.356;2022-09-17T06:37:45;17.90;99.90
56761;DHT22;42633;44.494;11.356;2022-09-17T06:40:53;17.90;99.90
56761;DHT22;42633;44.494;11.356;2022-09-17T06:44:03;17.90;99.90
56761;DHT22;42633;44.494;11.356;2022-09-17T06:47:07;17.80;99.90
56761;DHT22;42633;44.494;11.356;2022-09-17T06:50:11;17.70;99.90
56761;DHT22;42633;44.494;11.356;2022-09-17T06:53:22;17.70;99.90
56761;DHT22;42633;44.494;11.356;2022-09-17T06:56:28;17.60;99.50
56761;DHT22;42633;44.494;11.356;2022-09-17T07:03:04;16.60;99.90
56761;DHT22;42633;44.494;11.356;2022-09-17T07:06:08;15.80;99.90
56761;DHT22;42633;44.494;11.356;2022-09-17T07:09:18;15.40;99.90
56761;DHT22;42633;44.494;11.356;2022-09-17T07:12:22;15.00;99.90
56761;DHT22;42633;44.494;11.356;2022-09-17T07:15:26;15.10;99.90
56761;DHT22;42633;44.494;11.356;2022-09-17T07:18:30;15.20;99.90
56761;DHT22;42633;44.494;11.356;2022-09-17T07:21:34;15.00;99.90
56761;DHT22;42633;44.494;11.356;2022-09-17T07:24:38;15.10;99.90
56761;DHT22;42633;44.494;11.356;2022-09-17T07:27:42;15.10;99.90
56761;DHT22;42633;44.494;11.356;2022-09-17T07:30:47;15.20;99.90
56761;DHT22;42633;44.494;11.356;2022-09-17T07:33:51;15.20;99.90
56761;DHT22;42633;44.494;11.356;2022-09-17T07:36:57;15.40;99.90
56761;DHT22;42633;44.494;11.356;2022-09-17T07:40:03;15.50;99.90
56761;DHT22;42633;44.494;11.356;2022-09-17T07:43:10;15.80;99.90
56761;DHT22;42633;44.494;11.356;2022-09-17T07:46:16;15.70;99.90
56761;DHT22;42633;44.494;11.356;2022-09-17T07:49:25;15.30;99.90
56761;DHT22;42633;44.494;11.356;2022-09-17T07:52:29;15.40;99.90
56761;DHT22;42633;44.494;11.356;2022-09-17T07:55:33;15.50;99.90
56761;DHT22;42633;44.494;11.356;2022-09-17T07:58:37;15.70;99.90
56761;DHT22;42633;44.494;11.356;2022-09-17T08:01:48;15.60;99.90
56761;DHT22;42633;44.494;11.356;2022-09-17T08:04:55;15.30;99.90
56761;DHT22;42633;44.494;11.356;2022-09-17T08:07:59;15.10;99.90
56761;DHT22;42633;44.494;11.356;2022-09-17T08:11:04;15.00;99.90
56761;DHT22;42633;44.494;11.356;2022-09-17T08:14:11;15.10;99.90
56761;DHT22;42633;44.494;11.356;2022-09-17T08:17:15;14.50;99.90
56761;DHT22;42633;44.494;11.356;2022-09-17T08:20:20;14.30;99.90
56761;DHT22;42633;44.494;11.356;2022-09-17T08:23:25;14.50;99.90
56761;DHT22;42633;44.494;11.356;2022-09-17T08:26:29;14.30;99.90
56761;DHT22;42633;44.494;11.356;2022-09-17T08:29:33;14.20;99.90
56761;DHT22;42633;44.494;11.356;2022-09-17T08:32:37;14.30;99.90
56761;DHT22;42633;44.494;11.356;2022-09-17T08:35:41;14.50;99.90
56761;DHT22;42633;44.494;11.356;2022-09-17T08:38:45;14.40;99.90
56761;DHT22;42633;44.494;11.356;2022-09-17T08:45:35;14.70;99.90
56761;DHT22;42633;44.494;11.356;2022-09-17T09:05:25;15.50;99.90
56761;DHT22;42633;44.494;11.356;2022-09-17T09:08:41;15.40;99.90
56761;DHT22;42633;44.494;11.356;2022-09-17T09:12:05;15.30;99.90
56761;DHT22;42633;44.494;11.356;2022-09-17T09:18:22;15.10;99.90
56761;DHT22;42633;44.494;11.356;2022-09-17T09:21:32;15.10;99.90
56761;DHT22;42633;44.494;11.356;2022-09-17T09:27:55;14.90;99.90
56761;DHT22;42633;44.494;11.356;2022-09-17T09:34:12;15.00;99.90
56761;DHT22;42633;44.494;11.356;2022-09-17T09:37:25;15.10;99.90
56761;DHT22;42633;44.494;11.356;2022-09-17T09:43:38;15.40;99.90
56761;DHT22;42633;44.494;11.356;2022-09-17T09:46:59;15.50;99.90
56761;DHT22;42633;44.494;11.356;2022-09-17T09:56:57;15.70;99.90
56761;DHT22;42633;44.494;11.356;2022-09-17T10:03:41;15.90;99.90
56761;DHT22;42633;44.494;11.356;2022-09-17T10:06:47;16.00;99.90
56761;DHT22;42633;44.494;11.356;2022-09-17T10:09:54;16.10;99.90
56761;DHT22;42633;44.494;11.356;2022-09-17T10:13:12;16.10;99.90
56761;DHT22;42633;44.494;11.356;2022-09-17T10:19:30;16.20;99.90
56761;DHT22;42633;44.494;11.356;2022-09-17T10:22:38;16.30;99.90
56761;DHT22;42633;44.494;11.356;2022-09-17T10:25:47;16.30;99.90
56761;DHT22;42633;44.494;11.356;2022-09-17T10:28:59;16.20;99.90
56761;DHT22;42633;44.494;11.356;2022-09-17T10:32:14;16.00;99.90
56761;DHT22;42633;44.494;11.356;2022-09-17T10:38:29;16.10;99.90
56761;DHT22;42633;44.494;11.356;2022-09-17T10:41:33;16.10;99.90
56761;DHT22;42633;44.494;11.356;2022-09-17T10:45:00;16.10;99.90
56761;DHT22;42633;44.494;11.356;2022-09-17T10:48:04;16.20;99.90
56761;DHT22;42633;44.494;11.356;2022-09-17T10:51:09;16.20;99.90
56761;DHT22;42633;44.494;11.356;2022-09-17T11:07:19;16.80;99.90
56761;DHT22;42633;44.494;11.356;2022-09-17T11:10:36;17.00;99.90
56761;DHT22;42633;44.494;11.356;2022-09-17T11:23:26;17.70;99.90
56761;DHT22;42633;44.494;11.356;2022-09-17T11:26:35;17.60;99.90
56761;DHT22;42633;44.494;11.356;2022-09-17T11:36:13;17.70;99.90
56761;DHT22;42633;44.494;11.356;2022-09-17T11:39:30;17.60;99.90
56761;DHT22;42633;44.494;11.356;2022-09-17T11:42:42;17.90;99.90
56761;DHT22;42633;44.494;11.356;2022-09-17T11:49:01;18.20;99.90
56761;DHT22;42633;44.494;11.356;2022-09-17T11:55:51;18.40;99.90
56761;DHT22;42633;44.494;11.356;2022-09-17T12:06:10;19.00;99.90
56761;DHT22;42633;44.494;11.356;2022-09-17T12:09:17;19.20;99.90
56761;DHT22;42633;44.494;11.356;2022-09-17T12:12:25;19.50;98.80
56761;DHT22;42633;44.494;11.356;2022-09-17T12:15:32;19.70;97.80
56761;DHT22;42633;44.494;11.356;2022-09-17T12:22:07;20.30;97.40
56761;DHT22;42633;44.494;11.356;2022-09-17T12:25:25;20.40;95.80
56761;DHT22;42633;44.494;11.356;2022-09-17T12:28:38;20.20;95.40
56761;DHT22;42633;44.494;11.356;2022-09-17T12:31:47;20.20;95.70
56761;DHT22;42633;44.494;11.356;2022-09-17T12:38:47;20.70;95.70
56761;DHT22;42633;44.494;11.356;2022-09-17T12:42:16;20.00;95.60
56761;DHT22;42633;44.494;11.356;2022-09-17T12:58:26;20.70;92.20
56761;DHT22;42633;44.494;11.356;2022-09-17T13:01:47;20.70;91.90
56761;DHT22;42633;44.494;11.356;2022-09-17T13:14:27;21.00;91.40
56761;DHT22;42633;44.494;11.356;2022-09-17T13:17:45;21.10;90.50
56761;DHT22;42633;44.494;11.356;2022-09-17T13:21:10;21.10;90.80
56761;DHT22;42633;44.494;11.356;2022-09-17T13:24:20;21.20;91.00
56761;DHT22;42633;44.494;11.356;2022-09-17T13:27:25;21.40;91.30
56761;DHT22;42633;44.494;11.356;2022-09-17T13:30:53;21.20;90.20
56761;DHT22;42633;44.494;11.356;2022-09-17T13:33:54;21.20;89.60
56761;DHT22;42633;44.494;11.356;2022-09-17T13:36:59;21.00;89.30
56761;DHT22;42633;44.494;11.356;2022-09-17T13:40:04;20.80;90.50
56761;DHT22;42633;44.494;11.356;2022-09-17T13:43:21;20.70;90.60
56761;DHT22;42633;44.494;11.356;2022-09-17T13:46:28;20.90;90.30
56761;DHT22;42633;44.494;11.356;2022-09-17T13:49:35;21.10;89.30
56761;DHT22;42633;44.494;11.356;2022-09-17T13:58:47;21.40;87.70
56761;DHT22;42633;44.494;11.356;2022-09-17T14:05:18;21.30;87.30
56761;DHT22;42633;44.494;11.356;2022-09-17T14:08:29;21.40;85.90
56761;DHT22;42633;44.494;11.356;2022-09-17T14:11:35;21.50;85.10
56761;DHT22;42633;44.494;11.356;2022-09-17T14:14:40;21.40;84.50
56761;DHT22;42633;44.494;11.356;2022-09-17T14:17:52;21.20;84.40
56761;DHT22;42633;44.494;11.356;2022-09-17T14:24:21;21.20;85.90
56761;DHT22;42633;44.494;11.356;2022-09-17T14:27:33;21.30;86.00
56761;DHT22;42633;44.494;11.356;2022-09-17T14:30:44;21.40;85.50
56761;DHT22;42633;44.494;11.356;2022-09-17T14:33:48;21.40;84.50
56761;DHT22;42633;44.494;11.356;2022-09-17T14:36:52;21.10;82.60
56761;DHT22;42633;44.494;11.356;2022-09-17T14:39:58;20.90;84.60
56761;DHT22;42633;44.494;11.356;2022-09-17T14:43:02;20.80;84.90
56761;DHT22;42633;44.494;11.356;2022-09-17T14:46:07;20.80;85.60
56761;DHT22;42633;44.494;11.356;2022-09-17T14:49:33;20.90;84.90
56761;DHT22;42633;44.494;11.356;2022-09-17T14:52:37;21.00;84.70
56761;DHT22;42633;44.494;11.356;2022-09-17T14:55:40;21.10;83.10
56761;DHT22;42633;44.494;11.356;2022-09-17T14:58:45;21.00;85.30
56761;DHT22;42633;44.494;11.356;2022-09-17T15:01:50;20.90;84.50
56761;DHT22;42633;44.494;11.356;2022-09-17T15:04:55;20.60;84.70
56761;DHT22;42633;44.494;11.356;2022-09-17T15:08:04;20.50;86.30
56761;DHT22;42633;44.494;11.356;2022-09-17T15:11:09;20.60;85.90
56761;DHT22;42633;44.494;11.356;2022-09-17T15:14:19;20.60;85.70
56761;DHT22;42633;44.494;11.356;2022-09-17T15:17:23;20.70;85.90
56761;DHT22;42633;44.494;11.356;2022-09-17T15:20:28;20.70;85.70
56761;DHT22;42633;44.494;11.356;2022-09-17T15:23:33;20.70;86.50
56761;DHT22;42633;44.494;11.356;2022-09-17T15:26:39;20.80;86.50
56761;DHT22;42633;44.494;11.356;2022-09-17T15:29:45;20.90;87.30
56761;DHT22;42633;44.494;11.356;2022-09-17T15:32:53;20.80;87.00
56761;DHT22;42633;44.494;11.356;2022-09-17T15:36:06;20.80;86.60
56761;DHT22;42633;44.494;11.356;2022-09-17T15:39:27;20.70;86.50
56761;DHT22;42633;44.494;11.356;2022-09-17T15:42:31;20.60;87.10
56761;DHT22;42633;44.494;11.356;2022-09-17T15:45:36;20.60;87.50
56761;DHT22;42633;44.494;11.356;2022-09-17T15:48:41;20.60;87.70
56761;DHT22;42633;44.494;11.356;2022-09-17T15:51:46;20.60;87.10
56761;DHT22;42633;44.494;11.356;2022-09-17T15:54:50;20.60;88.00
56761;DHT22;42633;44.494;11.356;2022-09-17T15:57:55;20.50;87.20
56761;DHT22;42633;44.494;11.356;2022-09-17T16:07:27;20.20;88.20
56761;DHT22;42633;44.494;11.356;2022-09-17T16:10:31;20.20;89.40
56761;DHT22;42633;44.494;11.356;2022-09-17T16:13:36;20.10;88.00
56761;DHT22;42633;44.494;11.356;2022-09-17T16:16:40;20.00;88.80
56761;DHT22;42633;44.494;11.356;2022-09-17T16:19:44;20.00;89.30
56761;DHT22;42633;44.494;11.356;2022-09-17T16:22:48;19.90;88.90
56761;DHT22;42633;44.494;11.356;2022-09-17T16:25:53;19.80;89.10
56761;DHT22;42633;44.494;11.356;2022-09-17T16:28:58;19.70;88.90
56761;DHT22;42633;44.494;11.356;2022-09-17T16:32:02;19.70;89.30
56761;DHT22;42633;44.494;11.356;2022-09-17T16:35:07;19.50;89.90
56761;DHT22;42633;44.494;11.356;2022-09-17T16:38:11;19.50;90.30
56761;DHT22;42633;44.494;11.356;2022-09-17T16:41:16;19.40;90.10
56761;DHT22;42633;44.494;11.356;2022-09-17T16:44:20;19.30;90.40
56761;DHT22;42633;44.494;11.356;2022-09-17T16:47:24;19.20;90.60
56761;DHT22;42633;44.494;11.356;2022-09-17T16:50:28;19.30;90.50
56761;DHT22;42633;44.494;11.356;2022-09-17T16:53:32;19.30;90.40
56761;DHT22;42633;44.494;11.356;2022-09-17T16:56:37;19.30;90.80
56761;DHT22;42633;44.494;11.356;2022-09-17T16:59:41;19.30;90.60
56761;DHT22;42633;44.494;11.356;2022-09-17T17:02:53;19.20;90.90
56761;DHT22;42633;44.494;11.356;2022-09-17T17:05:57;19.10;90.90
56761;DHT22;42633;44.494;11.356;2022-09-17T17:09:01;19.00;90.90
56761;DHT22;42633;44.494;11.356;2022-09-17T17:12:05;18.90;91.30
56761;DHT22;42633;44.494;11.356;2022-09-17T17:15:12;18.70;91.60
56761;DHT22;42633;44.494;11.356;2022-09-17T17:18:18;18.70;91.60
56761;DHT22;42633;44.494;11.356;2022-09-17T17:21:22;18.50;91.90
56761;DHT22;42633;44.494;11.356;2022-09-17T17:24:27;18.50;91.80
56761;DHT22;42633;44.494;11.356;2022-09-17T17:27:31;18.50;92.10
56761;DHT22;42633;44.494;11.356;2022-09-17T17:30:35;18.40;92.40
56761;DHT22;42633;44.494;11.356;2022-09-17T17:33:40;18.40;92.40
56761;DHT22;42633;44.494;11.356;2022-09-17T17:36:46;18.30;92.50
56761;DHT22;42633;44.494;11.356;2022-09-17T17:39:51;18.30;92.70
56761;DHT22;42633;44.494;11.356;2022-09-17T17:42:55;18.20;92.90
56761;DHT22;42633;44.494;11.356;2022-09-17T17:45:59;18.10;92.90
56761;DHT22;42633;44.494;11.356;2022-09-17T17:49:03;18.00;93.00
56761;DHT22;42633;44.494;11.356;2022-09-17T17:52:07;17.90;93.30
56761;DHT22;42633;44.494;11.356;2022-09-17T17:55:11;17.90;93.50
56761;DHT22;42633;44.494;11.356;2022-09-17T17:58:15;18.00;93.40
56761;DHT22;42633;44.494;11.356;2022-09-17T18:01:20;18.00;93.50
56761;DHT22;42633;44.494;11.356;2022-09-17T18:04:24;18.10;93.60
56761;DHT22;42633;44.494;11.356;2022-09-17T18:07:28;18.10;93.40
56761;DHT22;42633;44.494;11.356;2022-09-17T18:10:32;18.10;93.40
56761;DHT22;42633;44.494;11.356;2022-09-17T18:13:37;18.20;93.10
56761;DHT22;42633;44.494;11.356;2022-09-17T18:16:40;18.20;93.10
56761;DHT22;42633;44.494;11.356;2022-09-17T18:19:44;18.20;93.00
56761;DHT22;42633;44.494;11.356;2022-09-17T18:22:49;18.10;92.90
56761;DHT22;42633;44.494;11.356;2022-09-17T18:25:53;18.00;93.00
56761;DHT22;42633;44.494;11.356;2022-09-17T18:28:57;18.00;93.20
56761;DHT22;42633;44.494;11.356;2022-09-17T18:32:01;18.00;93.10
56761;DHT22;42633;44.494;11.356;2022-09-17T18:35:05;17.90;93.30
56761;DHT22;42633;44.494;11.356;2022-09-17T18:38:10;17.90;93.20
56761;DHT22;42633;44.494;11.356;2022-09-17T18:41:14;17.80;93.20
56761;DHT22;42633;44.494;11.356;2022-09-17T18:44:18;17.70;93.20
56761;DHT22;42633;44.494;11.356;2022-09-17T18:47:24;17.70;93.50
56761;DHT22;42633;44.494;11.356;2022-09-17T18:50:28;17.60;93.60
56761;DHT22;42633;44.494;11.356;2022-09-17T18:57:02;17.60;93.50
56761;DHT22;42633;44.494;11.356;2022-09-17T19:00:06;17.50;93.30
56761;DHT22;42633;44.494;11.356;2022-09-17T19:03:13;17.50;93.30
56761;DHT22;42633;44.494;11.356;2022-09-17T19:06:18;17.40;93.10
56761;DHT22;42633;44.494;11.356;2022-09-17T19:09:22;17.40;93.00
56761;DHT22;42633;44.494;11.356;2022-09-17T19:12:27;17.20;93.40
56761;DHT22;42633;44.494;11.356;2022-09-17T19:15:31;17.10;93.40
56761;DHT22;42633;44.494;11.356;2022-09-17T19:18:36;17.00;93.60
56761;DHT22;42633;44.494;11.356;2022-09-17T19:21:41;16.90;93.60
56761;DHT22;42633;44.494;11.356;2022-09-17T19:24:46;16.80;93.70
56761;DHT22;42633;44.494;11.356;2022-09-17T19:27:50;16.80;93.70
56761;DHT22;42633;44.494;11.356;2022-09-17T19:30:56;16.70;93.90
56761;DHT22;42633;44.494;11.356;2022-09-17T19:34:01;16.70;93.90
56761;DHT22;42633;44.494;11.356;2022-09-17T19:37:05;16.60;94.00
56761;DHT22;42633;44.494;11.356;2022-09-17T19:40:09;16.60;94.10
56761;DHT22;42633;44.494;11.356;2022-09-17T19:43:13;16.60;94.10
56761;DHT22;42633;44.494;11.356;2022-09-17T19:46:18;16.60;94.40
56761;DHT22;42633;44.494;11.356;2022-09-17T19:49:22;16.60;94.60
56761;DHT22;42633;44.494;11.356;2022-09-17T19:52:27;16.50;94.70
56761;DHT22;42633;44.494;11.356;2022-09-17T19:55:31;16.40;94.90
56761;DHT22;42633;44.494;11.356;2022-09-17T19:58:35;16.40;94.90
56761;DHT22;42633;44.494;11.356;2022-09-17T20:01:39;16.30;94.80
56761;DHT22;42633;44.494;11.356;2022-09-17T20:04:43;16.20;94.90
56761;DHT22;42633;44.494;11.356;2022-09-17T20:07:49;16.20;94.90
56761;DHT22;42633;44.494;11.356;2022-09-17T20:10:53;16.20;94.70
56761;DHT22;42633;44.494;11.356;2022-09-17T20:13:58;16.20;94.70
56761;DHT22;42633;44.494;11.356;2022-09-17T20:17:05;16.20;95.10
56761;DHT22;42633;44.494;11.356;2022-09-17T20:20:09;16.20;94.80
56761;DHT22;42633;44.494;11.356;2022-09-17T20:23:13;16.20;94.40
56761;DHT22;42633;44.494;11.356;2022-09-17T20:26:17;16.10;94.80
56761;DHT22;42633;44.494;11.356;2022-09-17T20:29:22;16.20;94.50
56761;DHT22;42633;44.494;11.356;2022-09-17T20:32:26;16.10;94.50
56761;DHT22;42633;44.494;11.356;2022-09-17T20:35:30;16.10;94.40
56761;DHT22;42633;44.494;11.356;2022-09-17T20:38:34;16.10;94.30
56761;DHT22;42633;44.494;11.356;2022-09-17T20:41:38;16.10;94.50
56761;DHT22;42633;44.494;11.356;2022-09-17T20:44:43;16.10;94.50
56761;DHT22;42633;44.494;11.356;2022-09-17T20:47:47;16.10;94.50
56761;DHT22;42633;44.494;11.356;2022-09-17T20:50:53;16.10;94.50
56761;DHT22;42633;44.494;11.356;2022-09-17T20:53:57;16.10;94.40
56761;DHT22;42633;44.494;11.356;2022-09-17T20:57:02;16.10;94.40
56761;DHT22;42633;44.494;11.356;2022-09-17T21:00:08;16.00;94.60
56761;DHT22;42633;44.494;11.356;2022-09-17T21:03:23;16.00;94.50
56761;DHT22;42633;44.494;11.356;2022-09-17T21:06:32;16.00;94.40
56761;DHT22;42633;44.494;11.356;2022-09-17T21:09:36;16.00;94.30
56761;DHT22;42633;44.494;11.356;2022-09-17T21:12:44;16.00;94.40
56761;DHT22;42633;44.494;11.356;2022-09-17T21:15:55;15.90;94.40
56761;DHT22;42633;44.494;11.356;2022-09-17T21:19:01;15.90;94.40
56761;DHT22;42633;44.494;11.356;2022-09-17T21:22:05;16.00;94.50
56761;DHT22;42633;44.494;11.356;2022-09-17T21:25:09;16.00;94.30
56761;DHT22;42633;44.494;11.356;2022-09-17T21:28:13;16.00;94.00
56761;DHT22;42633;44.494;11.356;2022-09-17T21:31:22;16.00;93.90
56761;DHT22;42633;44.494;11.356;2022-09-17T21:34:26;16.00;93.90
56761;DHT22;42633;44.494;11.356;2022-09-17T21:37:30;16.00;93.70
56761;DHT22;42633;44.494;11.356;2022-09-17T21:40:34;16.00;93.90
56761;DHT22;42633;44.494;11.356;2022-09-17T21:43:39;16.10;93.80
56761;DHT22;42633;44.494;11.356;2022-09-17T21:46:43;16.00;93.90
56761;DHT22;42633;44.494;11.356;2022-09-17T21:49:47;16.00;94.30
56761;DHT22;42633;44.494;11.356;2022-09-17T21:52:52;16.00;94.60
56761;DHT22;42633;44.494;11.356;2022-09-17T21:56:08;16.00;94.80
56761;DHT22;42633;44.494;11.356;2022-09-17T21:59:13;15.90;94.60
56761;DHT22;42633;44.494;11.356;2022-09-17T22:02:17;15.90;94.90
56761;DHT22;42633;44.494;11.356;2022-09-17T22:05:21;15.90;95.20
56761;DHT22;42633;44.494;11.356;2022-09-17T22:08:25;15.90;95.50
56761;DHT22;42633;44.494;11.356;2022-09-17T22:11:30;15.90;95.50
56761;DHT22;42633;44.494;11.356;2022-09-17T22:14:34;15.90;95.20
56761;DHT22;42633;44.494;11.356;2022-09-17T22:17:38;15.90;94.60
56761;DHT22;42633;44.494;11.356;2022-09-17T22:20:43;15.90;94.30
56761;DHT22;42633;44.494;11.356;2022-09-17T22:23:47;15.90;94.30
56761;DHT22;42633;44.494;11.356;2022-09-17T22:26:52;15.90;94.20
56761;DHT22;42633;44.494;11.356;2022-09-17T22:29:57;15.80;94.10